sensor_id;sensor_type;location;lat;lon;timestamp;pressure;altitude;pressure_sealevel;temperature;humidity
21960;BME280;11144;43.030;25.108;2023-01-25T00:00:23;100803.13;;;2.72;100.00
21960;BME280;11144;43.030;25.108;2023-01-25T00:01:56;100807.34;;;2.66;100.00
21960;BME280;11144;43.030;25.108;2023-01-25T00:03:29;100805.53;;;2.62;100.00
21960;BME280;11144;43.030;25.108;2023-01-25T00:05:03;100803.84;;;2.64;100.00
21960;BME280;11144;43.030;25.108;2023-01-25T00:06:37;100804.72;;;2.64;100.00
21960;BME280;11144;43.030;25.108;2023-01-25T00:08:12;100813.53;;;2.69;100.00
21960;BME280;11144;43.030;25.108;2023-01-25T00:09:45;100804.88;;;2.72;100.00
21960;BME280;11144;43.030;25.108;2023-01-25T00:11:19;100807.47;;;2.72;100.00
21960;BME280;11144;43.030;25.108;2023-01-25T00:12:52;100809.22;;;2.73;100.00
21960;BME280;11144;43.030;25.108;2023-01-25T00:14:25;100812.69;;;2.72;100.00
21960;BME280;11144;43.030;25.108;2023-01-25T00:16:02;100810.16;;;2.75;100.00
21960;BME280;11144;43.030;25.108;2023-01-25T00:17:36;100804.91;;;2.73;100.00
21960;BME280;11144;43.030;25.108;2023-01-25T00:19:10;100804.91;;;2.73;100.00
21960;BME280;11144;43.030;25.108;2023-01-25T00:20:43;100810.16;;;2.76;100.00
21960;BME280;11144;43.030;25.108;2023-01-25T00:22:16;100809.28;;;2.76;100.00
21960;BME280;11144;43.030;25.108;2023-01-25T00:23:51;100813.69;;;2.78;100.00
21960;BME280;11144;43.030;25.108;2023-01-25T00:25:25;100808.53;;;2.81;100.00
21960;BME280;11144;43.030;25.108;2023-01-25T00:26:58;100807.72;;;2.84;100.00
21960;BME280;11144;43.030;25.108;2023-01-25T00:28:31;100811.22;;;2.84;100.00
21960;BME280;11144;43.030;25.108;2023-01-25T00:30:05;100808.59;;;2.84;100.00
21960;BME280;11144;43.030;25.108;2023-01-25T00:31:49;100802.47;;;2.84;100.00
21960;BME280;11144;43.030;25.108;2023-01-25T00:33:38;100788.47;;;2.79;100.00
21960;BME280;11144;43.030;25.108;2023-01-25T00:35:12;100799.00;;;2.85;100.00
21960;BME280;11144;43.030;25.108;2023-01-25T00:36:45;100792.91;;;2.83;100.00
21960;BME280;11144;43.030;25.108;2023-01-25T00:38:26;100791.19;;;2.85;100.00
21960;BME280;11144;43.030;25.108;2023-01-25T00:40:02;100795.50;;;2.83;100.00
21960;BME280;11144;43.030;25.108;2023-01-25T00:41:36;100802.41;;;2.81;100.00
21960;BME280;11144;43.030;25.108;2023-01-25T00:43:09;100798.94;;;2.82;100.00
21960;BME280;11144;43.030;25.108;2023-01-25T00:44:44;100795.50;;;2.83;100.00
21960;BME280;11144;43.030;25.108;2023-01-25T00:46:16;100793.78;;;2.85;100.00
21960;BME280;11144;43.030;25.108;2023-01-25T00:47:53;100794.72;;;2.87;100.00
21960;BME280;11144;43.030;25.108;2023-01-25T00:49:27;100791.13;;;2.82;100.00
21960;BME280;11144;43.030;25.108;2023-01-25T00:51:01;100793.72;;;2.82;100.00
21960;BME280;11144;43.030;25.108;2023-01-25T00:52:35;100789.34;;;2.79;100.00
21960;BME280;11144;43.030;25.108;2023-01-25T00:54:08;100793.69;;;2.79;100.00
21960;BME280;11144;43.030;25.108;2023-01-25T00:55:50;100791.91;;;2.78;100.00
21960;BME280;11144;43.030;25.108;2023-01-25T00:57:23;100793.69;;;2.79;100.00
21960;BME280;11144;43.030;25.108;2023-01-25T00:58:57;100794.59;;;2.81;100.00
21960;BME280;11144;43.030;25.108;2023-01-25T01:00:29;100788.50;;;2.82;100.00
21960;BME280;11144;43.030;25.108;2023-01-25T01:02:03;100786.78;;;2.82;100.00
21960;BME280;11144;43.030;25.108;2023-01-25T01:03:35;100785.06;;;2.83;100.00
21960;BME280;11144;43.030;25.108;2023-01-25T01:05:08;100787.69;;;2.83;100.00
21960;BME280;11144;43.030;25.108;2023-01-25T01:06:42;100780.69;;;2.83;100.00
21960;BME280;11144;43.030;25.108;2023-01-25T01:08:15;100783.38;;;2.86;100.00
21960;BME280;11144;43.030;25.108;2023-01-25T01:09:49;100782.50;;;2.87;100.00
21960;BME280;11144;43.030;25.108;2023-01-25T01:11:23;100785.16;;;2.89;100.00
21960;BME280;11144;43.030;25.108;2023-01-25T01:12:56;100776.50;;;2.90;100.00
21960;BME280;11144;43.030;25.108;2023-01-25T01:14:29;100774.78;;;2.92;100.00
21960;BME280;11144;43.030;25.108;2023-01-25T01:16:05;100769.50;;;2.89;100.00
21960;BME280;11144;43.030;25.108;2023-01-25T01:17:39;100764.25;;;2.86;100.00
21960;BME280;11144;43.030;25.108;2023-01-25T01:19:12;100772.97;;;2.88;100.00
21960;BME280;11144;43.030;25.108;2023-01-25T01:20:47;100774.69;;;2.86;100.00
21960;BME280;11144;43.030;25.108;2023-01-25T01:22:21;100769.47;;;2.86;100.00
21960;BME280;11144;43.030;25.108;2023-01-25T01:23:54;100774.66;;;2.84;100.00
21960;BME280;11144;43.030;25.108;2023-01-25T01:25:27;100776.38;;;2.84;100.00
21960;BME280;11144;43.030;25.108;2023-01-25T01:27:01;100779.91;;;2.86;100.00
21960;BME280;11144;43.030;25.108;2023-01-25T01:28:35;100778.25;;;2.91;100.00
21960;BME280;11144;43.030;25.108;2023-01-25T01:30:11;100777.41;;;2.93;100.00
21960;BME280;11144;43.030;25.108;2023-01-25T01:31:45;100776.53;;;2.93;100.00
21960;BME280;11144;43.030;25.108;2023-01-25T01:33:30;100769.34;;;2.80;100.00
21960;BME280;11144;43.030;25.108;2023-01-25T01:35:06;100770.22;;;2.82;100.00
21960;BME280;11144;43.030;25.108;2023-01-25T01:36:41;100771.03;;;2.78;100.00
21960;BME280;11144;43.030;25.108;2023-01-25T01:38:14;100771.78;;;2.72;100.00
21960;BME280;11144;43.030;25.108;2023-01-25T01:39:47;100766.59;;;2.74;100.00
21960;BME280;11144;43.030;25.108;2023-01-25T01:41:21;100769.22;;;2.74;100.00
21960;BME280;11144;43.030;25.108;2023-01-25T01:42:57;100759.63;;;2.73;100.00
21960;BME280;11144;43.030;25.108;2023-01-25T01:44:43;100762.25;;;2.73;100.00
21960;BME280;11144;43.030;25.108;2023-01-25T01:46:22;100763.84;;;2.65;100.00
21960;BME280;11144;43.030;25.108;2023-01-25T01:47:57;100762.97;;;2.66;100.00
21960;BME280;11144;43.030;25.108;2023-01-25T01:49:31;100759.56;;;2.70;100.00
21960;BME280;11144;43.030;25.108;2023-01-25T01:51:21;100765.72;;;2.72;100.00
21960;BME280;11144;43.030;25.108;2023-01-25T01:52:56;100765.72;;;2.72;100.00
21960;BME280;11144;43.030;25.108;2023-01-25T01:54:32;100759.56;;;2.70;100.00
21960;BME280;11144;43.030;25.108;2023-01-25T01:56:13;100756.13;;;2.72;100.00
21960;BME280;11144;43.030;25.108;2023-01-25T01:57:52;100756.94;;;2.70;100.00
21960;BME280;11144;43.030;25.108;2023-01-25T01:59:33;100763.16;;;2.76;100.00
21960;BME280;11144;43.030;25.108;2023-01-25T02:01:10;100759.75;;;2.79;100.00
21960;BME280;11144;43.030;25.108;2023-01-25T02:02:42;100756.25;;;2.78;100.00
21960;BME280;11144;43.030;25.108;2023-01-25T02:04:18;100753.69;;;2.81;100.00
21960;BME280;11144;43.030;25.108;2023-01-25T02:05:56;100746.72;;;2.82;100.00
21960;BME280;11144;43.030;25.108;2023-01-25T02:07:33;100749.34;;;2.80;100.00
21960;BME280;11144;43.030;25.108;2023-01-25T02:09:07;100756.28;;;2.80;100.00
21960;BME280;11144;43.030;25.108;2023-01-25T02:10:41;100757.06;;;2.76;100.00
21960;BME280;11144;43.030;25.108;2023-01-25T02:12:14;100757.06;;;2.76;100.00
21960;BME280;11144;43.030;25.108;2023-01-25T02:13:48;100756.25;;;2.78;100.00
21960;BME280;11144;43.030;25.108;2023-01-25T02:15:30;100765.88;;;2.81;100.00
21960;BME280;11144;43.030;25.108;2023-01-25T02:17:06;100751.94;;;2.82;100.00
21960;BME280;11144;43.030;25.108;2023-01-25T02:18:39;100754.56;;;2.82;100.00
21960;BME280;11144;43.030;25.108;2023-01-25T02:20:17;100765.88;;;2.81;100.00
21960;BME280;11144;43.030;25.108;2023-01-25T02:21:57;100755.34;;;2.78;100.00
21960;BME280;11144;43.030;25.108;2023-01-25T02:23:35;100764.13;;;2.80;100.00
21960;BME280;11144;43.030;25.108;2023-01-25T02:25:15;100751.91;;;2.79;100.00
21960;BME280;11144;43.030;25.108;2023-01-25T02:26:49;100755.34;;;2.78;100.00
21960;BME280;11144;43.030;25.108;2023-01-25T02:28:25;100761.50;;;2.80;100.00
21960;BME280;11144;43.030;25.108;2023-01-25T02:29:59;100752.81;;;2.81;100.00
21960;BME280;11144;43.030;25.108;2023-01-25T02:31:32;100743.28;;;2.83;100.00
21960;BME280;11144;43.030;25.108;2023-01-25T02:33:05;100746.72;;;2.82;100.00
21960;BME280;11144;43.030;25.108;2023-01-25T02:34:39;100741.41;;;2.76;100.00
21960;BME280;11144;43.030;25.108;2023-01-25T02:36:19;100755.47;;;2.84;100.00
21960;BME280;11144;43.030;25.108;2023-01-25T02:37:53;100744.16;;;2.85;100.00
21960;BME280;11144;43.030;25.108;2023-01-25T02:39:27;100746.78;;;2.85;100.00
21960;BME280;11144;43.030;25.108;2023-01-25T02:41:07;100745.09;;;2.87;100.00
21960;BME280;11144;43.030;25.108;2023-01-25T02:42:45;100745.13;;;2.88;100.00
21960;BME280;11144;43.030;25.108;2023-01-25T02:44:22;100743.34;;;2.86;100.00
21960;BME280;11144;43.030;25.108;2023-01-25T02:46:01;100747.69;;;2.85;100.00
21960;BME280;11144;43.030;25.108;2023-01-25T02:47:34;100740.69;;;2.84;100.00
21960;BME280;11144;43.030;25.108;2023-01-25T02:49:08;100741.50;;;2.82;100.00
21960;BME280;11144;43.030;25.108;2023-01-25T02:50:42;100753.72;;;2.83;100.00
21960;BME280;11144;43.030;25.108;2023-01-25T02:52:16;100746.78;;;2.85;100.00
21960;BME280;11144;43.030;25.108;2023-01-25T02:53:50;100741.56;;;2.85;100.00
21960;BME280;11144;43.030;25.108;2023-01-25T02:55:24;100729.22;;;2.75;100.00
21960;BME280;11144;43.030;25.108;2023-01-25T02:56:58;100747.53;;;2.78;100.00
21960;BME280;11144;43.030;25.108;2023-01-25T02:58:38;100743.22;;;2.80;100.00
21960;BME280;11144;43.030;25.108;2023-01-25T03:00:10;100744.97;;;2.81;100.00
21960;BME280;11144;43.030;25.108;2023-01-25T03:01:44;100743.22;;;2.80;100.00
21960;BME280;11144;43.030;25.108;2023-01-25T03:03:18;100741.50;;;2.82;100.00
21960;BME280;11144;43.030;25.108;2023-01-25T03:04:51;100740.63;;;2.80;100.00
21960;BME280;11144;43.030;25.108;2023-01-25T03:06:25;100750.19;;;2.81;100.00
21960;BME280;11144;43.030;25.108;2023-01-25T03:07:58;100739.75;;;2.81;100.00
21960;BME280;11144;43.030;25.108;2023-01-25T03:09:31;100743.28;;;2.83;100.00
21960;BME280;11144;43.030;25.108;2023-01-25T03:11:06;100741.50;;;2.82;100.00
21960;BME280;11144;43.030;25.108;2023-01-25T03:12:42;100746.78;;;2.85;100.00
21960;BME280;11144;43.030;25.108;2023-01-25T03:14:15;100749.41;;;2.85;100.00
21960;BME280;11144;43.030;25.108;2023-01-25T03:15:48;100730.13;;;2.78;100.00
21960;BME280;11144;43.030;25.108;2023-01-25T03:17:22;100745.03;;;2.84;100.00
21960;BME280;11144;43.030;25.108;2023-01-25T03:18:56;100743.34;;;2.86;100.00
21960;BME280;11144;43.030;25.108;2023-01-25T03:20:29;100745.94;;;2.87;100.00
21960;BME280;11144;43.030;25.108;2023-01-25T03:22:02;100743.34;;;2.86;100.00
21960;BME280;11144;43.030;25.108;2023-01-25T03:23:38;100737.06;;;2.76;100.00
21960;BME280;11144;43.030;25.108;2023-01-25T03:25:12;100737.88;;;2.74;100.00
21960;BME280;11144;43.030;25.108;2023-01-25T03:26:55;100738.63;;;2.67;100.00
21960;BME280;11144;43.030;25.108;2023-01-25T03:28:53;100734.25;;;2.66;100.00
21960;BME280;11144;43.030;25.108;2023-01-25T03:30:27;100744.66;;;2.64;100.00
21960;BME280;11144;43.030;25.108;2023-01-25T03:32:00;100751.66;;;2.67;100.00
21960;BME280;11144;43.030;25.108;2023-01-25T03:33:33;100746.44;;;2.67;100.00
21960;BME280;11144;43.030;25.108;2023-01-25T03:35:07;100749.03;;;2.64;100.00
21960;BME280;11144;43.030;25.108;2023-01-25T03:36:40;100751.56;;;2.61;100.00
21960;BME280;11144;43.030;25.108;2023-01-25T03:38:13;100743.78;;;2.62;100.00
21960;BME280;11144;43.030;25.108;2023-01-25T03:39:48;100735.91;;;2.61;100.00
21960;BME280;11144;43.030;25.108;2023-01-25T03:41:23;100741.22;;;2.67;100.00
21960;BME280;11144;43.030;25.108;2023-01-25T03:42:56;100748.16;;;2.65;100.00
21960;BME280;11144;43.030;25.108;2023-01-25T03:44:31;100744.69;;;2.66;100.00
21960;BME280;11144;43.030;25.108;2023-01-25T03:46:04;100744.75;;;2.69;100.00
21960;BME280;11144;43.030;25.108;2023-01-25T03:47:38;100743.91;;;2.70;100.00
21960;BME280;11144;43.030;25.108;2023-01-25T03:49:12;100742.94;;;2.65;100.00
21960;BME280;11144;43.030;25.108;2023-01-25T03:50:49;100742.94;;;2.65;100.00
21960;BME280;11144;43.030;25.108;2023-01-25T03:52:33;100743.84;;;2.67;100.00
21960;BME280;11144;43.030;25.108;2023-01-25T03:54:20;100750.81;;;2.66;100.00
21960;BME280;11144;43.030;25.108;2023-01-25T03:55:54;100745.66;;;2.69;100.00
21960;BME280;11144;43.030;25.108;2023-01-25T03:57:26;100745.66;;;2.71;100.00
21960;BME280;11144;43.030;25.108;2023-01-25T03:59:09;100743.94;;;2.71;100.00
21960;BME280;11144;43.030;25.108;2023-01-25T04:00:45;100738.72;;;2.71;100.00
21960;BME280;11144;43.030;25.108;2023-01-25T04:02:18;100741.34;;;2.73;100.00
21960;BME280;11144;43.030;25.108;2023-01-25T04:03:51;100738.75;;;2.73;100.00
21960;BME280;11144;43.030;25.108;2023-01-25T04:05:24;100738.06;;;2.83;100.00
21960;BME280;11144;43.030;25.108;2023-01-25T04:06:57;100748.44;;;2.80;100.00
21960;BME280;11144;43.030;25.108;2023-01-25T04:08:32;100738.81;;;2.76;100.00
21960;BME280;11144;43.030;25.108;2023-01-25T04:10:08;100740.44;;;2.69;100.00
21960;BME280;11144;43.030;25.108;2023-01-25T04:11:48;100744.56;;;2.58;100.00
21960;BME280;11144;43.030;25.108;2023-01-25T04:13:23;100738.25;;;2.49;100.00
21960;BME280;11144;43.030;25.108;2023-01-25T04:14:56;100742.53;;;2.44;100.00
21960;BME280;11144;43.030;25.108;2023-01-25T04:16:31;100734.69;;;2.44;100.00
21960;BME280;11144;43.030;25.108;2023-01-25T04:18:33;100742.66;;;2.50;100.00
21960;BME280;11144;43.030;25.108;2023-01-25T04:20:07;100740.88;;;2.47;100.00
21960;BME280;11144;43.030;25.108;2023-01-25T04:21:44;100734.81;;;2.48;100.00
21960;BME280;11144;43.030;25.108;2023-01-25T04:23:17;100742.72;;;2.53;100.00
21960;BME280;11144;43.030;25.108;2023-01-25T04:24:50;100741.06;;;2.58;100.00
21960;BME280;11144;43.030;25.108;2023-01-25T04:26:24;100738.53;;;2.61;100.00
21960;BME280;11144;43.030;25.108;2023-01-25T04:28:03;100742.88;;;2.62;100.00
21960;BME280;11144;43.030;25.108;2023-01-25T04:29:37;100745.53;;;2.63;100.00
21960;BME280;11144;43.030;25.108;2023-01-25T04:31:17;100750.69;;;2.60;100.00
21960;BME280;11144;43.030;25.108;2023-01-25T04:32:54;100749.84;;;2.63;100.00
21960;BME280;11144;43.030;25.108;2023-01-25T04:34:32;100741.19;;;2.64;100.00
21960;BME280;11144;43.030;25.108;2023-01-25T04:36:06;100748.16;;;2.65;100.00
21960;BME280;11144;43.030;25.108;2023-01-25T04:37:41;100749.97;;;2.69;100.00
21960;BME280;11144;43.030;25.108;2023-01-25T04:39:13;100744.75;;;2.69;100.00
21960;BME280;11144;43.030;25.108;2023-01-25T04:40:47;100750.81;;;2.66;100.00
21960;BME280;11144;43.030;25.108;2023-01-25T04:42:19;100750.81;;;2.66;100.00
21960;BME280;11144;43.030;25.108;2023-01-25T04:43:57;100752.44;;;2.61;100.00
21960;BME280;11144;43.030;25.108;2023-01-25T04:45:31;100753.25;;;2.59;100.00
21960;BME280;11144;43.030;25.108;2023-01-25T04:47:10;100751.50;;;2.58;100.00
21960;BME280;11144;43.030;25.108;2023-01-25T04:48:45;100753.25;;;2.59;100.00
21960;BME280;11144;43.030;25.108;2023-01-25T04:50:19;100753.28;;;2.60;100.00
21960;BME280;11144;43.030;25.108;2023-01-25T04:51:53;100751.63;;;2.64;100.00
21960;BME280;11144;43.030;25.108;2023-01-25T04:53:25;100740.31;;;2.63;100.00
21960;BME280;11144;43.030;25.108;2023-01-25T04:55:04;100746.50;;;2.70;100.00
21960;BME280;11144;43.030;25.108;2023-01-25T04:56:43;100749.97;;;2.69;100.00
21960;BME280;11144;43.030;25.108;2023-01-25T04:58:16;100749.06;;;2.67;100.00
21960;BME280;11144;43.030;25.108;2023-01-25T04:59:50;100749.06;;;2.67;100.00
21960;BME280;11144;43.030;25.108;2023-01-25T05:01:25;100749.06;;;2.67;100.00
21960;BME280;11144;43.030;25.108;2023-01-25T05:02:59;100752.59;;;2.69;100.00
21960;BME280;11144;43.030;25.108;2023-01-25T05:04:33;100751.72;;;2.70;100.00
21960;BME280;11144;43.030;25.108;2023-01-25T05:06:07;100748.25;;;2.71;100.00
21960;BME280;11144;43.030;25.108;2023-01-25T05:07:41;100755.25;;;2.72;100.00
21960;BME280;11144;43.030;25.108;2023-01-25T05:09:13;100753.44;;;2.68;100.00
21960;BME280;11144;43.030;25.108;2023-01-25T05:10:49;100754.41;;;2.73;100.00
21960;BME280;11144;43.030;25.108;2023-01-25T05:12:42;100757.91;;;2.73;100.00
21960;BME280;11144;43.030;25.108;2023-01-25T05:14:17;100756.22;;;2.77;100.00
21960;BME280;11144;43.030;25.108;2023-01-25T05:15:50;100754.50;;;2.77;100.00
21960;BME280;11144;43.030;25.108;2023-01-25T05:17:23;100758.81;;;2.77;100.00
21960;BME280;11144;43.030;25.108;2023-01-25T05:18:57;100751.84;;;2.76;100.00
21960;BME280;11144;43.030;25.108;2023-01-25T05:20:44;100744.88;;;2.75;100.00
21960;BME280;11144;43.030;25.108;2023-01-25T05:22:18;100744.75;;;2.69;100.00
21960;BME280;11144;43.030;25.108;2023-01-25T05:23:55;100742.94;;;2.65;100.00
21960;BME280;11144;43.030;25.108;2023-01-25T05:25:28;100752.50;;;2.64;100.00
21960;BME280;11144;43.030;25.108;2023-01-25T05:27:25;100744.63;;;2.63;100.00
21960;BME280;11144;43.030;25.108;2023-01-25T05:28:58;100742.00;;;2.61;100.00
21960;BME280;11144;43.030;25.108;2023-01-25T05:30:39;100745.53;;;2.63;100.00
21960;BME280;11144;43.030;25.108;2023-01-25T05:32:24;100755.13;;;2.66;100.00
21960;BME280;11144;43.030;25.108;2023-01-25T05:33:58;100735.91;;;2.61;100.00
21960;BME280;11144;43.030;25.108;2023-01-25T05:35:30;100743.91;;;2.70;100.00
21960;BME280;11144;43.030;25.108;2023-01-25T05:37:07;100748.19;;;2.66;100.00
21960;BME280;11144;43.030;25.108;2023-01-25T05:38:43;100753.41;;;2.66;100.00
21960;BME280;11144;43.030;25.108;2023-01-25T05:40:18;100756.88;;;2.67;100.00
21960;BME280;11144;43.030;25.108;2023-01-25T05:41:53;100759.50;;;2.67;100.00
21960;BME280;11144;43.030;25.108;2023-01-25T05:43:27;100753.44;;;2.68;100.00
21960;BME280;11144;43.030;25.108;2023-01-25T05:45:01;100756.06;;;2.68;100.00
21960;BME280;11144;43.030;25.108;2023-01-25T05:46:35;100759.56;;;2.70;100.00
21960;BME280;11144;43.030;25.108;2023-01-25T05:48:07;100762.25;;;2.73;100.00
21960;BME280;11144;43.030;25.108;2023-01-25T05:49:40;100749.91;;;2.66;100.00
21960;BME280;11144;43.030;25.108;2023-01-25T05:51:19;100761.31;;;2.69;100.00
21960;BME280;11144;43.030;25.108;2023-01-25T05:52:53;100759.59;;;2.71;100.00
21960;BME280;11144;43.030;25.108;2023-01-25T05:54:27;100755.31;;;2.75;100.00
21960;BME280;11144;43.030;25.108;2023-01-25T05:56:07;100761.41;;;2.75;100.00
21960;BME280;11144;43.030;25.108;2023-01-25T05:57:41;100757.00;;;2.73;100.00
21960;BME280;11144;43.030;25.108;2023-01-25T05:59:15;100762.16;;;2.70;100.00
21960;BME280;11144;43.030;25.108;2023-01-25T06:00:49;100758.59;;;2.65;100.00
21960;BME280;11144;43.030;25.108;2023-01-25T06:02:36;100760.34;;;2.66;100.00
21960;BME280;11144;43.030;25.108;2023-01-25T06:04:12;100768.22;;;2.67;100.00
21960;BME280;11144;43.030;25.108;2023-01-25T06:05:46;100764.72;;;2.67;100.00
21960;BME280;11144;43.030;25.108;2023-01-25T06:07:19;100768.19;;;2.66;100.00
21960;BME280;11144;43.030;25.108;2023-01-25T06:08:56;100764.69;;;2.65;100.00
21960;BME280;11144;43.030;25.108;2023-01-25T06:10:29;100770.88;;;2.69;100.00
21960;BME280;11144;43.030;25.108;2023-01-25T06:12:03;100767.41;;;2.70;100.00
21960;BME280;11144;43.030;25.108;2023-01-25T06:13:37;100760.41;;;2.69;100.00
21960;BME280;11144;43.030;25.108;2023-01-25T06:15:10;100768.28;;;2.70;100.00
21960;BME280;11144;43.030;25.108;2023-01-25T06:16:44;100762.16;;;2.70;100.00
21960;BME280;11144;43.030;25.108;2023-01-25T06:18:50;100774.44;;;2.74;100.00
21960;BME280;11144;43.030;25.108;2023-01-25T06:20:36;100771.78;;;2.72;100.00
21960;BME280;11144;43.030;25.108;2023-01-25T06:22:09;100767.47;;;2.73;100.00
21960;BME280;11144;43.030;25.108;2023-01-25T06:23:43;100770.91;;;2.70;100.00
21960;BME280;11144;43.030;25.108;2023-01-25T06:25:17;100772.63;;;2.70;100.00
21960;BME280;11144;43.030;25.108;2023-01-25T06:26:50;100783.06;;;2.70;100.00
21960;BME280;11144;43.030;25.108;2023-01-25T06:28:24;100768.22;;;2.67;100.00
21960;BME280;11144;43.030;25.108;2023-01-25T06:29:57;100778.59;;;2.64;100.00
21960;BME280;11144;43.030;25.108;2023-01-25T06:31:30;100773.31;;;2.61;100.00
21960;BME280;11144;43.030;25.108;2023-01-25T06:33:03;100777.63;;;2.58;100.00
21960;BME280;11144;43.030;25.108;2023-01-25T06:34:36;100774.94;;;2.55;100.00
21960;BME280;11144;43.030;25.108;2023-01-25T06:36:14;100774.06;;;2.56;100.00
21960;BME280;11144;43.030;25.108;2023-01-25T06:37:48;100779.38;;;2.59;100.00
21960;BME280;11144;43.030;25.108;2023-01-25T06:39:21;100771.59;;;2.62;100.00
21960;BME280;11144;43.030;25.108;2023-01-25T06:40:59;100772.31;;;2.55;100.00
21960;BME280;11144;43.030;25.108;2023-01-25T06:42:33;100776.75;;;2.59;100.00
21960;BME280;11144;43.030;25.108;2023-01-25T06:44:07;100773.31;;;2.61;100.00
21960;BME280;11144;43.030;25.108;2023-01-25T06:45:40;100777.69;;;2.61;100.00
21960;BME280;11144;43.030;25.108;2023-01-25T06:47:14;100767.31;;;2.64;100.00
21960;BME280;11144;43.030;25.108;2023-01-25T06:48:47;100777.72;;;2.62;100.00
21960;BME280;11144;43.030;25.108;2023-01-25T06:50:21;100782.91;;;2.61;100.00
21960;BME280;11144;43.030;25.108;2023-01-25T06:51:54;100774.22;;;2.62;100.00
21960;BME280;11144;43.030;25.108;2023-01-25T06:53:28;100774.22;;;2.62;100.00
21960;BME280;11144;43.030;25.108;2023-01-25T06:55:02;100774.03;;;2.53;100.00
21960;BME280;11144;43.030;25.108;2023-01-25T06:56:37;100777.66;;;2.59;100.00
21960;BME280;11144;43.030;25.108;2023-01-25T06:58:10;100777.69;;;2.61;100.00
21960;BME280;11144;43.030;25.108;2023-01-25T06:59:43;100779.44;;;2.62;100.00
21960;BME280;11144;43.030;25.108;2023-01-25T07:01:18;100787.41;;;2.71;100.00
21960;BME280;11144;43.030;25.108;2023-01-25T07:02:52;100783.25;;;2.79;100.00
21960;BME280;11144;43.030;25.108;2023-01-25T07:04:25;100779.84;;;2.83;100.00
21960;BME280;11144;43.030;25.108;2023-01-25T07:05:59;100783.34;;;2.85;100.00
21960;BME280;11144;43.030;25.108;2023-01-25T07:07:33;100771.16;;;2.84;100.00
21960;BME280;11144;43.030;25.108;2023-01-25T07:09:08;100785.13;;;2.86;100.00
21960;BME280;11144;43.030;25.108;2023-01-25T07:10:41;100776.38;;;2.84;100.00
21960;BME280;11144;43.030;25.108;2023-01-25T07:12:15;100783.34;;;2.85;100.00
21960;BME280;11144;43.030;25.108;2023-01-25T07:13:50;100781.72;;;2.90;100.00
21960;BME280;11144;43.030;25.108;2023-01-25T07:15:23;100783.56;;;2.97;100.00
21960;BME280;11144;43.030;25.108;2023-01-25T07:16:57;100781.00;;;3.00;100.00
21960;BME280;11144;43.030;25.108;2023-01-25T07:18:34;100785.28;;;2.95;100.00
21960;BME280;11144;43.030;25.108;2023-01-25T07:20:10;100779.97;;;2.90;100.00
21960;BME280;11144;43.030;25.108;2023-01-25T07:21:43;100779.13;;;2.93;100.00
21960;BME280;11144;43.030;25.108;2023-01-25T07:23:18;100779.19;;;2.96;100.00
21960;BME280;11144;43.030;25.108;2023-01-25T07:24:51;100781.75;;;2.93;100.00
21960;BME280;11144;43.030;25.108;2023-01-25T07:26:25;100780.09;;;2.96;100.00
21960;BME280;11144;43.030;25.108;2023-01-25T07:27:59;100778.31;;;2.94;100.00
21960;BME280;11144;43.030;25.108;2023-01-25T07:29:33;100779.19;;;2.96;100.00
21960;BME280;11144;43.030;25.108;2023-01-25T07:31:06;100771.34;;;2.96;100.00
21960;BME280;11144;43.030;25.108;2023-01-25T07:32:40;100780.84;;;2.91;100.00
21960;BME280;11144;43.030;25.108;2023-01-25T07:34:13;100781.53;;;2.81;100.00
21960;BME280;11144;43.030;25.108;2023-01-25T07:35:46;100782.34;;;2.78;100.00
21960;BME280;11144;43.030;25.108;2023-01-25T07:37:21;100781.47;;;2.78;100.00
21960;BME280;11144;43.030;25.108;2023-01-25T07:38:54;100781.59;;;2.84;100.00
21960;BME280;11144;43.030;25.108;2023-01-25T07:40:28;100774.63;;;2.83;100.00
21960;BME280;11144;43.030;25.108;2023-01-25T07:42:01;100778.25;;;2.91;100.00
21960;BME280;11144;43.030;25.108;2023-01-25T07:43:38;100780.00;;;2.92;100.00
21960;BME280;11144;43.030;25.108;2023-01-25T07:45:13;100781.81;;;2.96;100.00
21960;BME280;11144;43.030;25.108;2023-01-25T07:46:47;100783.56;;;2.97;100.00
21960;BME280;11144;43.030;25.108;2023-01-25T07:48:20;100777.50;;;2.98;100.00
21960;BME280;11144;43.030;25.108;2023-01-25T07:49:53;100776.69;;;3.02;100.00
21960;BME280;11144;43.030;25.108;2023-01-25T07:51:27;100780.13;;;2.98;100.00
21960;BME280;11144;43.030;25.108;2023-01-25T07:53:01;100779.22;;;2.97;100.00
21960;BME280;11144;43.030;25.108;2023-01-25T07:54:35;100767.88;;;2.97;100.00
21960;BME280;11144;43.030;25.108;2023-01-25T07:56:11;100769.53;;;2.92;100.00
21960;BME280;11144;43.030;25.108;2023-01-25T07:57:44;100771.28;;;2.93;100.00
21960;BME280;11144;43.030;25.108;2023-01-25T07:59:19;100776.44;;;2.87;100.00
21960;BME280;11144;43.030;25.108;2023-01-25T08:00:52;100769.47;;;2.86;100.00
21960;BME280;11144;43.030;25.108;2023-01-25T08:02:25;100772.16;;;2.92;100.00
21960;BME280;11144;43.030;25.108;2023-01-25T08:03:59;100768.00;;;3.03;100.00
21960;BME280;11144;43.030;25.108;2023-01-25T08:05:33;100756.75;;;3.07;100.00
21960;BME280;11144;43.030;25.108;2023-01-25T08:07:06;100761.13;;;3.08;100.00
21960;BME280;11144;43.030;25.108;2023-01-25T08:08:41;100775.16;;;3.13;100.00
21960;BME280;11144;43.030;25.108;2023-01-25T08:10:15;100761.34;;;3.20;100.00
21960;BME280;11144;43.030;25.108;2023-01-25T08:11:48;100764.00;;;3.24;100.00